Time;durP1;ratioP1;P1;durP2;ratioP2;P2;SDS_P1;SDS_P2;PMS_P1;PMS_P2;Temp;Humidity;BMP_temperature;BMP_pressure;BME280_temperature;BME280_humidity;BME280_pressure;Samples;Min_cycle;Max_cycle;Signal;HPM_P1;HPM_P2
2021/03/25 00:01:54;;;;;;;0.30;0.30;;;;;;;-1.55;68.14;99007.16;5013904;28;20030;-91
2021/03/25 00:04:20;;;;;;;0.52;0.52;;;;;;;-1.85;67.19;98975.06;5013745;28;20037;-91
2021/03/25 00:06:49;;;;;;;0.50;0.50;;;;;;;-1.83;68.31;98977.44;5013630;28;20092;-92
2021/03/25 00:09:24;;;;;;;0.32;0.32;;;;;;;-1.74;68.49;98988.88;5013701;28;20092;-91
2021/03/25 00:11:50;;;;;;;0.30;0.30;;;;;;;-1.50;66.85;99034.00;5013880;28;20029;-91
2021/03/25 00:14:17;;;;;;;0.40;0.40;;;;;;;-1.69;68.03;99018.44;5013543;28;20450;-91
2021/03/25 00:16:42;;;;;;;0.30;0.30;;;;;;;-1.65;69.01;99030.13;5013701;28;20061;-92
2021/03/25 00:19:09;;;;;;;0.40;0.40;;;;;;;-2.03;69.33;98964.91;5013450;28;20084;-91
2021/03/25 00:21:35;;;;;;;0.40;0.40;;;;;;;-1.72;69.59;99019.13;5013727;28;20485;-89
2021/03/25 00:24:01;;;;;;;0.30;0.30;;;;;;;-2.02;68.18;98975.38;5013361;28;20051;-90
2021/03/25 00:26:27;;;;;;;0.40;0.40;;;;;;;-1.73;68.71;99018.31;5013341;28;20068;-91
2021/03/25 00:28:53;;;;;;;0.85;0.85;;;;;;;-1.98;69.17;98981.66;5013387;28;20053;-91
2021/03/25 00:31:19;;;;;;;0.50;0.50;;;;;;;-2.34;69.75;98949.38;5013459;28;20401;-91
2021/03/25 00:33:45;;;;;;;0.40;0.40;;;;;;;-1.83;68.72;99031.59;5013228;28;20022;-91
2021/03/25 00:36:10;;;;;;;0.30;0.30;;;;;;;-1.87;68.85;99028.78;5013287;28;20030;-92
2021/03/25 00:38:36;;;;;;;0.47;0.47;;;;;;;-2.01;69.45;99005.97;5013090;28;20026;-90
2021/03/25 00:41:02;;;;;;;0.45;0.45;;;;;;;-2.16;68.63;98966.88;5013144;28;20033;-91
2021/03/25 00:43:27;;;;;;;1.05;1.05;;;;;;;-1.90;68.66;99023.28;5013170;28;20022;-91
2021/03/25 00:45:53;;;;;;;0.40;0.40;;;;;;;-1.92;68.57;99020.13;5013904;28;20047;-91
2021/03/25 00:48:23;;;;;;;0.30;0.30;;;;;;;-2.07;68.07;98995.38;5013351;28;20490;-90
2021/03/25 00:50:52;;;;;;;0.40;0.40;;;;;;;-1.88;67.80;99026.44;5013457;28;20124;-90
2021/03/25 00:53:23;;;;;;;0.40;0.40;;;;;;;-2.36;67.83;98962.47;5012564;28;20433;-92
2021/03/25 00:55:49;;;;;;;0.30;0.30;;;;;;;-2.29;68.46;98952.59;5029543;28;20030;-90
2021/03/25 00:58:14;;;;;;;0.40;0.40;;;;;;;-1.91;68.67;99011.66;5012848;28;20040;-91
2021/03/25 01:00:42;;;;;;;0.30;0.30;;;;;;;-2.09;67.37;98989.50;5012791;28;20022;-91
2021/03/25 01:03:09;;;;;;;0.30;0.30;;;;;;;-2.18;66.78;98952.94;5012927;28;20105;-91
2021/03/25 01:05:35;;;;;;;0.40;0.40;;;;;;;-2.05;67.11;98978.81;5012578;28;20489;-90
2021/03/25 01:08:29;;;;;;;0.40;0.40;;;;;;;-1.93;68.08;99008.50;5012689;28;20269;-90
2021/03/25 01:11:01;;;;;;;0.40;0.40;;;;;;;-1.93;67.60;99023.97;5013232;28;20117;-90
2021/03/25 01:13:36;;;;;;;0.38;0.38;;;;;;;-2.05;66.75;98987.69;5013726;28;20037;-92
2021/03/25 01:16:03;;;;;;;0.40;0.40;;;;;;;-1.89;67.19;99031.06;5012911;28;20064;-89
2021/03/25 01:18:29;;;;;;;0.40;0.40;;;;;;;-1.86;67.40;99022.22;5012575;28;20036;-90
2021/03/25 01:20:56;;;;;;;0.47;0.47;;;;;;;-2.29;66.67;98958.03;5012331;28;20029;-91
2021/03/25 01:23:22;;;;;;;0.40;0.40;;;;;;;-2.06;67.62;99010.50;5012475;28;20099;-92
2021/03/25 01:25:48;;;;;;;0.30;0.30;;;;;;;-2.00;67.91;99013.75;5013211;28;20497;-92
2021/03/25 01:28:16;;;;;;;0.50;0.50;;;;;;;-2.23;67.20;98975.59;5012464;28;20100;-91
2021/03/25 01:30:43;;;;;;;0.30;0.30;;;;;;;-1.93;67.78;99038.28;5012481;28;20033;-91
2021/03/25 01:33:11;;;;;;;0.40;0.40;;;;;;;-1.89;67.32;99035.69;5012975;28;20038;-90
2021/03/25 01:35:38;;;;;;;0.40;0.40;;;;;;;-1.99;67.17;99028.06;5012401;28;20269;-90
2021/03/25 01:38:06;;;;;;;0.30;0.30;;;;;;;-1.94;67.71;99015.06;5012942;28;20053;-91
2021/03/25 01:40:34;;;;;;;;;;;;;;;-1.88;68.02;99026.44;5012699;28;20125;-91
2021/03/25 01:43:11;;;;;;;0.47;0.47;;;;;;;-1.92;68.21;99047.97;5012435;28;19963;-92
2021/03/25 01:45:45;;;;;;;0.30;0.30;;;;;;;-2.09;67.93;99008.47;5012191;28;20033;-90
2021/03/25 01:48:11;;;;;;;0.38;0.38;;;;;;;-2.13;68.28;98987.84;5012302;28;20034;-91
2021/03/25 01:50:37;;;;;;;0.30;0.30;;;;;;;-1.87;68.53;99050.44;5012382;28;20037;-89
2021/03/25 01:53:08;;;;;;;0.35;0.35;;;;;;;-1.83;67.83;99018.06;5012505;28;20030;-90
2021/03/25 01:55:48;;;;;;;0.30;0.30;;;;;;;-1.78;67.42;99036.75;5012111;28;20030;-91
2021/03/25 01:58:31;;;;;;;0.30;0.30;;;;;;;-1.97;66.84;99004.91;5012447;28;20104;-91
2021/03/25 02:01:00;;;;;;;0.35;0.35;;;;;;;-2.05;67.59;98984.22;5012356;28;20071;-91
2021/03/25 02:04:07;;;;;;;0.40;0.40;;;;;;;-1.79;67.60;99014.28;5012869;28;20030;-90
2021/03/25 02:06:39;;;;;;;;;;;;;;;-1.76;67.23;99020.94;5015695;28;20065;-90
2021/03/25 02:09:19;;;;;;;0.32;0.32;;;;;;;-2.01;67.15;99016.78;5032571;28;20012;-91
2021/03/25 02:12:23;;;;;;;0.40;0.40;;;;;;;-1.81;68.00;99027.38;5015880;28;20029;-90
2021/03/25 02:15:18;;;;;;;0.30;0.30;;;;;;;-1.86;66.97;99040.38;4983596;28;20057;-92
2021/03/25 02:17:55;;;;;;;0.30;0.30;;;;;;;-2.19;66.50;98964.88;5015116;28;20042;-91
2021/03/25 02:20:42;;;;;;;1.75;0.93;;;;;;;-1.81;66.20;99013.84;5015845;28;20033;-91
2021/03/25 02:23:45;;;;;;;0.30;0.30;;;;;;;-1.74;67.77;99014.03;5015754;28;20021;-90
2021/03/25 02:26:37;;;;;;;0.30;0.30;;;;;;;-1.91;66.77;98990.00;5015725;28;20383;-91
2021/03/25 02:29:14;;;;;;;0.50;0.50;;;;;;;-1.74;67.00;99016.75;5015561;28;20060;-91
2021/03/25 02:32:04;;;;;;;0.30;0.30;;;;;;;-1.73;66.10;99031.06;5014221;28;20029;-90
2021/03/25 02:34:38;;;;;;;0.30;0.30;;;;;;;-1.77;66.68;99022.88;5015761;28;20093;-91
2021/03/25 02:37:25;;;;;;;0.40;0.40;;;;;;;-1.77;66.10;99016.66;5016103;28;20037;-90
2021/03/25 02:39:59;;;;;;;1.00;1.00;;;;;;;-1.82;65.86;99031.25;5015353;28;20034;-91
2021/03/25 02:42:37;;;;;;;1.25;1.25;;;;;;;-1.75;65.59;99036.84;5015963;28;20046;-90
2021/03/25 02:45:11;;;;;;;0.40;0.40;;;;;;;-1.94;65.76;98988.00;5015431;28;20068;-91
2021/03/25 02:47:40;;;;;;;0.30;0.30;;;;;;;-1.85;66.51;99021.09;5015422;28;20069;-90
2021/03/25 02:50:09;;;;;;;0.30;0.30;;;;;;;-1.81;66.41;99038.22;5015112;28;20022;-91
2021/03/25 02:52:41;;;;;;;0.30;0.30;;;;;;;-1.99;66.80;99044.31;5015118;28;20088;-90
2021/03/25 02:55:10;;;;;;;0.35;0.35;;;;;;;-1.97;67.06;99040.09;5015423;28;20030;-92
2021/03/25 02:57:45;;;;;;;0.40;0.40;;;;;;;-2.13;64.34;99002.19;5015563;28;20038;-91
2021/03/25 03:00:15;;;;;;;0.50;0.50;;;;;;;-2.04;66.13;99012.84;5015952;28;20061;-90
2021/03/25 03:02:46;;;;;;;0.30;0.30;;;;;;;-1.74;65.03;99053.88;5015188;28;20636;-90
2021/03/25 03:05:20;;;;;;;0.30;0.30;;;;;;;-1.79;66.28;99046.78;5014971;28;20029;-89
2021/03/25 03:07:51;;;;;;;0.38;0.38;;;;;;;-1.76;66.00;99056.16;5015532;28;20037;-89
2021/03/25 03:10:23;;;;;;;0.30;0.30;;;;;;;-1.82;65.47;99073.78;5031673;28;20072;-90
2021/03/25 03:12:52;;;;;;;0.82;0.82;;;;;;;-1.71;64.60;99064.81;5015432;28;20026;-90
2021/03/25 03:15:32;;;;;;;0.30;0.30;;;;;;;-2.07;64.94;99013.53;5015456;28;20064;-89
2021/03/25 03:18:07;;;;;;;0.40;0.40;;;;;;;-1.81;67.19;99076.13;5014047;28;20026;-90
2021/03/25 03:20:40;;;;;;;0.52;0.52;;;;;;;-1.99;64.73;99026.16;5014585;28;20065;-90
2021/03/25 03:23:07;;;;;;;0.40;0.40;;;;;;;-1.84;66.10;99055.16;5014873;28;20088;-91
2021/03/25 03:25:33;;;;;;;0.30;0.30;;;;;;;-1.90;66.38;99053.06;5015240;28;20103;-90
2021/03/25 03:28:15;;;;;;;0.40;0.40;;;;;;;-1.85;66.62;99063.63;5014614;28;20537;-91
2021/03/25 03:30:46;;;;;;;0.40;0.40;;;;;;;-1.78;67.88;99096.34;5014467;28;20030;-90
2021/03/25 03:33:17;;;;;;;0.30;0.30;;;;;;;-2.37;67.73;99001.47;5014478;28;20022;-90
2021/03/25 03:36:07;;;;;;;0.40;0.40;;;;;;;-1.85;65.79;99069.84;5014509;28;20037;-90
2021/03/25 03:38:41;;;;;;;3.80;2.15;;;;;;;-2.18;65.81;99007.03;5013375;28;20034;-91
2021/03/25 03:41:08;;;;;;;0.98;0.93;;;;;;;-1.77;65.36;99060.78;5013890;28;20045;-92
2021/03/25 03:43:35;;;;;;;0.30;0.30;;;;;;;-1.59;63.66;99076.72;5014117;28;20115;-91
2021/03/25 03:46:09;;;;;;;3.97;1.60;;;;;;;-1.77;64.77;99043.75;5014229;28;20273;-90
2021/03/25 03:48:47;;;;;;;0.38;0.38;;;;;;;-1.49;65.19;99087.84;5014903;28;20101;-92
2021/03/25 03:51:21;;;;;;;0.40;0.40;;;;;;;-1.45;65.60;99105.00;5014625;28;20108;-90
2021/03/25 03:53:47;;;;;;;0.35;0.35;;;;;;;-1.44;64.40;99097.63;5014318;28;20506;-90
2021/03/25 03:56:31;;;;;;;0.30;0.30;;;;;;;-1.73;63.06;99029.16;5014018;28;20095;-90
2021/03/25 03:59:03;;;;;;;0.30;0.30;;;;;;;-1.51;64.09;99098.25;5014495;28;20030;-91
2021/03/25 04:01:46;;;;;;;0.40;0.40;;;;;;;-1.54;65.64;99079.19;5013861;28;20022;-90
2021/03/25 04:04:17;;;;;;;0.30;0.30;;;;;;;-1.40;64.72;99084.97;5014445;28;20030;-89
2021/03/25 04:06:56;;;;;;;0.30;0.30;;;;;;;-1.24;64.04;99112.88;5013670;28;20126;-90
2021/03/25 04:09:32;;;;;;;0.40;0.40;;;;;;;-1.24;64.24;99113.66;5013893;28;20036;-90
2021/03/25 04:12:11;;;;;;;0.50;0.50;;;;;;;-1.46;65.06;99087.16;5014156;28;20113;-91
2021/03/25 04:14:54;;;;;;;0.38;0.38;;;;;;;-1.39;65.61;99114.44;5014152;28;20461;-90
2021/03/25 04:17:34;;;;;;;0.30;0.30;;;;;;;-1.79;66.23;99082.00;5014156;28;20041;-91
2021/03/25 04:20:08;;;;;;;0.40;0.40;;;;;;;-1.50;66.52;99120.69;5014019;28;20501;-91
2021/03/25 04:22:40;;;;;;;0.30;0.30;;;;;;;-1.49;66.94;99127.69;5013662;28;20112;-90
2021/03/25 04:25:14;;;;;;;0.30;0.30;;;;;;;-1.51;67.52;99133.47;5014045;28;20458;-90
2021/03/25 04:27:51;;;;;;;0.47;0.47;;;;;;;-1.71;69.03;99115.50;5013527;28;20067;-90
2021/03/25 04:30:23;;;;;;;0.35;0.35;;;;;;;-1.92;69.02;99099.41;5012937;28;20037;-91
2021/03/25 04:32:50;;;;;;;0.30;0.30;;;;;;;-1.87;70.29;99096.47;5013570;28;20037;-91
2021/03/25 04:35:17;;;;;;;0.40;0.40;;;;;;;-1.80;69.53;99109.41;5013242;28;20121;-90
2021/03/25 04:37:44;;;;;;;0.30;0.30;;;;;;;-1.85;70.86;99115.09;5013188;28;20482;-89
2021/03/25 04:40:14;;;;;;;0.40;0.40;;;;;;;-1.77;69.79;99133.91;5013760;28;20022;-91
2021/03/25 04:42:42;;;;;;;1.33;0.93;;;;;;;-2.05;68.61;99092.50;5013119;28;20088;-90
2021/03/25 04:45:14;;;;;;;;;;;;;;;-1.63;67.34;99136.25;5013555;28;20050;-89
2021/03/25 04:47:46;;;;;;;0.45;0.45;;;;;;;-1.35;65.47;99147.06;5013545;28;19910;-91
2021/03/25 04:50:26;;;;;;;0.30;0.30;;;;;;;-1.31;65.07;99142.50;5013088;28;20029;-91
2021/03/25 04:53:07;;;;;;;0.30;0.30;;;;;;;-1.44;65.06;99111.19;5013677;28;20030;-90
2021/03/25 04:55:35;;;;;;;1.02;1.02;;;;;;;-1.24;65.42;99104.75;5012945;28;20038;-91
2021/03/25 04:58:05;;;;;;;;;;;;;;;-0.93;65.09;99152.78;5013736;28;20116;-90
2021/03/25 05:00:42;;;;;;;0.30;0.30;;;;;;;-0.95;63.71;99117.88;5012830;28;19915;-91
2021/03/25 05:03:15;;;;;;;0.40;0.40;;;;;;;-0.60;63.30;99136.16;5013259;28;20033;-89
2021/03/25 05:05:40;;;;;;;0.30;0.30;;;;;;;-0.15;63.06;99170.94;5012675;28;20494;-89
2021/03/25 05:08:08;;;;;;;0.30;0.30;;;;;;;0.08;62.33;99152.06;5013041;28;20030;-89
2021/03/25 05:10:42;;;;;;;;;;;;;;;0.36;60.71;99163.53;5013613;28;20041;-89
2021/03/25 05:13:30;;;;;;;0.40;0.40;;;;;;;0.87;59.75;99168.78;5012644;28;19913;-90
2021/03/25 05:16:33;;;;;;;0.28;0.28;;;;;;;1.35;57.73;99164.59;5012442;28;20077;-89
2021/03/25 05:19:01;;;;;;;0.40;0.40;;;;;;;1.87;56.32;99136.63;5012842;28;20592;-88
2021/03/25 05:21:42;;;;;;;0.20;0.20;;;;;;;2.48;54.55;99188.03;5012347;28;20026;-87
2021/03/25 05:24:12;;;;;;;0.30;0.30;;;;;;;2.77;52.97;99170.84;5013365;28;20068;-88
2021/03/25 05:26:47;;;;;;;0.28;0.28;;;;;;;2.87;53.46;99166.69;5012403;28;20021;-91
2021/03/25 05:29:14;;;;;;;0.30;0.30;;;;;;;3.09;52.99;99163.00;5029041;28;20054;-86
2021/03/25 05:31:43;;;;;;;0.20;0.20;;;;;;;3.13;52.02;99124.84;5011739;28;20025;-86
2021/03/25 05:34:13;;;;;;;1.10;1.10;;;;;;;3.93;50.64;99175.81;5012506;28;20087;-84
2021/03/25 05:36:39;;;;;;;0.68;0.68;;;;;;;4.22;49.64;99162.31;5012368;28;20021;-84
2021/03/25 05:39:05;;;;;;;0.25;0.25;;;;;;;4.97;47.69;99166.13;5011743;28;20493;-83
2021/03/25 05:41:43;;;;;;;0.20;0.20;;;;;;;5.69;46.25;99155.63;5011601;28;20022;-83
2021/03/25 05:44:22;;;;;;;0.75;0.75;;;;;;;5.33;46.53;99130.19;5011837;28;20033;-82
2021/03/25 05:46:55;;;;;;;0.93;0.93;;;;;;;5.92;44.78;99130.56;5011738;28;20030;-85
2021/03/25 05:49:41;;;;;;;0.43;0.43;;;;;;;5.61;46.24;99165.03;5011994;28;20036;-84
2021/03/25 05:52:33;;;;;;;1.02;0.93;;;;;;;6.07;44.54;99167.78;5011869;28;20022;-85
2021/03/25 05:55:04;;;;;;;0.88;0.88;;;;;;;6.42;44.79;99174.34;5011663;28;20030;-83
2021/03/25 05:57:52;;;;;;;0.22;0.22;;;;;;;6.26;44.90;99160.28;5011837;28;20030;-83
2021/03/25 06:00:26;;;;;;;0.60;0.60;;;;;;;6.09;44.09;99145.41;5011878;28;20121;-83
2021/03/25 06:03:02;;;;;;;0.30;0.30;;;;;;;6.24;45.21;99174.41;5011743;28;20030;-84
2021/03/25 06:05:28;;;;;;;1.13;1.13;;;;;;;6.33;44.71;99165.75;5011346;28;20090;-83
2021/03/25 06:08:31;;;;;;;0.43;0.43;;;;;;;6.46;43.84;99159.44;5011783;28;20030;-87
2021/03/25 06:11:11;;;;;;;0.32;0.32;;;;;;;6.84;41.87;99137.69;5011510;28;20121;-89
2021/03/25 06:14:01;;;;;;;0.20;0.20;;;;;;;7.16;43.06;99189.72;5011572;28;20030;-86
2021/03/25 06:16:35;;;;;;;0.30;0.30;;;;;;;8.08;41.90;99134.75;5011465;28;20033;-81
2021/03/25 06:19:09;;;;;;;0.30;0.30;;;;;;;8.05;40.58;99163.09;5011772;28;20065;-81
2021/03/25 06:22:00;;;;;;;0.30;0.30;;;;;;;7.89;41.45;99167.56;5011579;28;20057;-84
2021/03/25 06:24:34;;;;;;;0.70;0.70;;;;;;;8.16;40.76;99139.00;5011598;28;20030;-82
2021/03/25 06:27:06;;;;;;;0.75;0.75;;;;;;;8.43;40.81;99143.84;5011645;28;20026;-80
2021/03/25 06:29:35;;;;;;;0.93;0.93;;;;;;;7.80;39.03;99142.50;5011508;28;20021;-81
2021/03/25 06:32:11;;;;;;;0.47;0.47;;;;;;;7.86;40.94;99182.91;5010927;28;20387;-80
2021/03/25 06:34:45;;;;;;;0.20;0.20;;;;;;;8.02;41.02;99183.16;5011851;28;20052;-82
2021/03/25 06:37:18;;;;;;;0.10;0.10;;;;;;;8.07;40.42;99146.97;5011698;28;20034;-80
2021/03/25 06:39:58;;;;;;;0.35;0.35;;;;;;;8.50;39.51;99144.53;5011086;28;20022;-81
2021/03/25 06:42:30;;;;;;;0.20;0.20;;;;;;;8.84;39.11;99172.06;5012140;28;20175;-81
2021/03/25 06:45:02;;;;;;;1.38;1.38;;;;;;;8.72;39.39;99123.03;5011471;28;20030;-81
2021/03/25 06:47:39;;;;;;;1.20;0.80;;;;;;;8.22;38.95;99155.06;5011333;28;20048;-82
2021/03/25 06:50:06;;;;;;;0.50;0.50;;;;;;;8.14;39.00;99174.38;5011864;28;20034;-83
2021/03/25 06:52:36;;;;;;;0.52;0.52;;;;;;;7.52;40.39;99184.78;5012765;28;20034;-87
2021/03/25 06:55:12;;;;;;;0.35;0.35;;;;;;;7.42;41.30;99141.63;5014703;28;20033;-86
2021/03/25 06:58:02;;;;;;;0.20;0.20;;;;;;;7.86;39.39;99190.38;5014722;28;20029;-84
2021/03/25 07:00:33;;;;;;;0.30;0.30;;;;;;;7.09;41.30;99187.78;5013929;28;20033;-85
2021/03/25 07:03:03;;;;;;;0.68;0.68;;;;;;;7.36;40.23;99188.00;5014303;28;20045;-85
2021/03/25 07:05:32;;;;;;;0.20;0.20;;;;;;;7.65;39.94;99199.59;5014199;28;20053;-81
2021/03/25 07:08:15;;;;;;;;;;;;;;;7.62;41.22;99200.41;5014898;28;20054;-83
2021/03/25 07:10:42;;;;;;;1.05;1.05;;;;;;;7.39;40.27;99203.69;5030650;28;19919;-85
2021/03/25 07:13:12;;;;;;;0.30;0.30;;;;;;;7.25;39.40;99163.34;5013064;28;20065;-87
2021/03/25 07:15:40;;;;;;;0.50;0.50;;;;;;;7.30;38.90;99162.13;5012570;28;20033;-86
2021/03/25 07:18:21;;;;;;;0.30;0.30;;;;;;;7.40;40.60;99188.78;5014043;28;20038;-87
2021/03/25 07:20:46;;;;;;;0.20;0.20;;;;;;;8.10;40.29;99194.88;5014473;28;20030;-85
2021/03/25 07:23:14;;;;;;;0.47;0.47;;;;;;;8.02;38.75;99188.66;5013862;28;20418;-83
2021/03/25 07:25:46;;;;;;;0.90;0.90;;;;;;;8.13;40.34;99194.09;5013943;28;20573;-83
2021/03/25 07:28:23;;;;;;;0.73;0.73;;;;;;;7.75;39.16;99171.22;5014417;28;20034;-85
2021/03/25 07:31:03;;;;;;;0.20;0.20;;;;;;;7.28;39.24;99143.31;5015397;28;20018;-85
2021/03/25 07:33:37;;;;;;;0.30;0.30;;;;;;;7.04;42.56;99195.69;5014685;28;20265;-86
2021/03/25 07:36:08;;;;;;;0.20;0.20;;;;;;;6.82;44.27;99173.78;5014407;28;20033;-86
2021/03/25 07:38:37;;;;;;;0.40;0.40;;;;;;;6.14;43.73;99147.78;5014243;28;20034;-88
2021/03/25 07:41:11;;;;;;;0.20;0.20;;;;;;;6.14;42.61;99172.47;5014118;28;20117;-88
2021/03/25 07:44:14;;;;;;;0.40;0.40;;;;;;;6.17;43.18;99201.84;5013980;28;20032;-89
2021/03/25 07:46:43;;;;;;;0.30;0.30;;;;;;;6.04;45.77;99209.69;5014189;28;20037;-88
2021/03/25 07:49:12;;;;;;;0.25;0.25;;;;;;;5.95;46.41;99209.31;5014008;28;20109;-87
2021/03/25 07:51:45;;;;;;;0.52;0.52;;;;;;;6.09;46.20;99206.53;5013954;28;20034;-87
2021/03/25 07:54:13;;;;;;;0.20;0.20;;;;;;;6.14;45.50;99205.38;5013943;28;20030;-86
2021/03/25 07:57:08;;;;;;;;;;;;;;;6.04;44.77;99200.69;5014973;28;20034;-86
2021/03/25 07:59:35;;;;;;;0.20;0.20;;;;;;;5.62;42.89;99199.50;5008928;28;20000;-88
2021/03/25 08:02:02;;;;;;;1.17;1.10;;;;;;;5.85;45.90;99212.81;5013873;28;20116;-86
2021/03/25 08:04:30;;;;;;;0.20;0.20;;;;;;;5.86;43.99;99197.13;5013871;28;20083;-86
2021/03/25 08:07:09;;;;;;;0.20;0.20;;;;;;;5.51;43.83;99197.91;5013304;28;20058;-86
2021/03/25 08:09:58;;;;;;;2.65;0.57;;;;;;;5.88;46.25;99203.06;5014307;28;20387;-87
2021/03/25 08:12:28;;;;;;;0.20;0.20;;;;;;;5.94;44.21;99209.72;5014064;28;20112;-89
2021/03/25 08:15:24;;;;;;;0.73;0.73;;;;;;;5.99;45.76;99192.84;5012230;28;20403;-89
2021/03/25 08:17:57;;;;;;;0.38;0.38;;;;;;;6.11;42.96;99204.19;5011812;28;20121;-89
2021/03/25 08:20:26;;;;;;;0.20;0.20;;;;;;;6.15;43.80;99234.38;5011781;28;20030;-90
2021/03/25 08:22:54;;;;;;;0.20;0.20;;;;;;;6.33;43.13;99193.97;5011426;28;20030;-86
2021/03/25 08:25:25;;;;;;;0.45;0.45;;;;;;;6.13;44.90;99201.06;5012275;28;20026;-87
2021/03/25 08:28:12;;;;;;;0.32;0.32;;;;;;;6.20;42.94;99197.53;5013092;28;20022;-86
2021/03/25 08:30:57;;;;;;;0.32;0.32;;;;;;;6.29;45.57;99163.00;5013498;28;20486;-88
2021/03/25 08:33:44;;;;;;;0.82;0.82;;;;;;;6.61;45.91;99203.31;5013786;28;20036;-86
2021/03/25 08:36:16;;;;;;;0.20;0.20;;;;;;;6.70;43.68;99187.19;5012949;28;20087;-83
2021/03/25 08:39:15;;;;;;;0.20;0.20;;;;;;;6.71;45.55;99170.31;5013540;28;20120;-84
2021/03/25 08:41:57;;;;;;;0.35;0.35;;;;;;;6.80;41.94;99170.69;5012894;28;20470;-83
2021/03/25 08:44:22;;;;;;;1.67;0.73;;;;;;;7.03;41.39;99197.63;5011076;28;20117;-86
2021/03/25 08:46:55;;;;;;;1.65;1.15;;;;;;;7.20;43.24;99174.75;5011031;28;20145;-83
2021/03/25 08:50:02;;;;;;;0.82;0.82;;;;;;;7.33;43.04;99169.59;5011057;28;20029;-85
2021/03/25 08:52:33;;;;;;;0.80;0.80;;;;;;;6.92;43.95;99136.47;5010545;28;20034;-85
2021/03/25 08:55:19;;;;;;;0.20;0.20;;;;;;;6.48;44.03;99104.91;5011054;28;20037;-85
2021/03/25 08:57:49;;;;;;;0.90;0.90;;;;;;;6.55;44.47;99142.53;5011032;28;20100;-84
2021/03/25 09:00:19;;;;;;;0.20;0.20;;;;;;;6.48;44.19;99126.09;5012658;28;20091;-84
2021/03/25 09:03:00;;;;;;;0.80;0.80;;;;;;;6.84;42.88;99173.41;5012418;28;20026;-85
2021/03/25 09:05:39;;;;;;;2.05;1.85;;;;;;;7.14;43.07;99159.09;5012204;28;20080;-84
2021/03/25 09:08:12;;;;;;;0.68;0.68;;;;;;;7.34;42.80;99168.41;5012512;28;20456;-84
2021/03/25 09:10:46;;;;;;;0.22;0.22;;;;;;;7.18;43.26;99160.63;5012104;28;20022;-85
2021/03/25 09:13:16;;;;;;;2.72;0.82;;;;;;;7.36;43.32;99150.31;5012852;28;20053;-86
2021/03/25 09:15:43;;;;;;;0.75;0.75;;;;;;;7.51;43.20;99125.47;5011839;28;20053;-85
2021/03/25 09:18:14;;;;;;;0.73;0.73;;;;;;;7.85;42.71;99148.34;5012485;28;20034;-86
2021/03/25 09:20:44;;;;;;;0.60;0.60;;;;;;;8.05;43.24;99112.78;5012615;28;20037;-84
2021/03/25 09:23:28;;;;;;;0.57;0.57;;;;;;;8.54;39.24;99181.09;5012312;28;20084;-86
2021/03/25 09:25:54;;;;;;;0.20;0.20;;;;;;;8.62;39.16;99148.72;5012476;28;20034;-85
2021/03/25 09:28:20;;;;;;;1.35;1.15;;;;;;;8.59;39.33;99166.06;5012386;28;20026;-84
2021/03/25 09:31:08;;;;;;;0.20;0.20;;;;;;;8.99;42.55;99187.22;5012206;28;20413;-86
2021/03/25 09:33:48;;;;;;;0.28;0.28;;;;;;;9.06;40.63;99146.97;5012326;28;20029;-85
2021/03/25 09:36:17;;;;;;;0.40;0.40;;;;;;;9.05;40.33;99195.78;5012982;28;20042;-85
2021/03/25 09:38:43;;;;;;;0.30;0.30;;;;;;;8.32;38.85;99152.22;5012230;28;20030;-86
2021/03/25 09:41:37;;;;;;;0.32;0.32;;;;;;;7.88;39.84;99117.28;5013336;28;20130;-84
2021/03/25 09:44:05;;;;;;;1.73;1.73;;;;;;;8.23;41.75;99173.13;5012476;28;20033;-86
2021/03/25 09:47:09;;;;;;;0.82;0.82;;;;;;;8.40;40.74;99172.97;5012029;28;20057;-85
2021/03/25 09:49:49;;;;;;;0.82;0.82;;;;;;;8.66;43.19;99135.69;5011568;28;20111;-85
2021/03/25 09:52:26;;;;;;;0.40;0.40;;;;;;;8.37;39.80;99121.50;5011646;28;20494;-85
2021/03/25 09:54:54;;;;;;;0.30;0.30;;;;;;;8.44;41.68;99181.19;5028416;28;20030;-84
2021/03/25 09:57:29;;;;;;;0.85;0.85;;;;;;;8.49;40.86;99144.97;5011993;28;20040;-84
2021/03/25 10:00:09;;;;;;;0.40;0.40;;;;;;;8.88;38.45;99175.53;5011807;28;20036;-82
2021/03/25 10:02:37;;;;;;;0.52;0.52;;;;;;;8.53;40.61;99135.47;5010279;28;20103;-84
2021/03/25 10:05:24;;;;;;;0.20;0.20;;;;;;;8.21;39.73;99137.75;5009132;28;20034;-84
2021/03/25 10:07:53;;;;;;;0.55;0.55;;;;;;;7.71;40.48;99153.97;5009624;28;20121;-86
2021/03/25 10:10:45;;;;;;;0.22;0.22;;;;;;;7.71;41.71;99132.75;5009639;28;20556;-86
2021/03/25 10:13:14;;;;;;;3.60;0.57;;;;;;;8.01;40.27;99169.81;5009671;28;20057;-86
2021/03/25 10:15:54;;;;;;;0.73;0.73;;;;;;;8.05;39.48;99157.59;5011598;28;20410;-84
2021/03/25 10:18:26;;;;;;;0.85;0.85;;;;;;;8.36;40.65;99160.44;5011591;28;20030;-84
2021/03/25 10:21:03;;;;;;;0.32;0.32;;;;;;;8.30;40.06;99127.09;5011773;28;20116;-86
2021/03/25 10:23:50;;;;;;;4.07;0.93;;;;;;;8.58;38.07;99167.25;5012181;28;20179;-84
2021/03/25 10:26:33;;;;;;;0.63;0.63;;;;;;;9.08;39.50;99172.94;5013455;28;20030;-83
2021/03/25 10:29:04;;;;;;;0.20;0.20;;;;;;;9.38;37.32;99166.59;5015475;28;20121;-83
2021/03/25 10:31:55;;;;;;;0.60;0.60;;;;;;;9.12;37.02;99113.00;5013758;28;20029;-83
2021/03/25 10:34:23;;;;;;;0.20;0.20;;;;;;;9.11;41.52;99133.50;5015330;28;20512;-84
2021/03/25 10:36:55;;;;;;;1.55;0.55;;;;;;;9.51;42.57;99145.50;5015059;28;20505;-81
2021/03/25 10:39:28;;;;;;;1.85;1.75;;;;;;;9.32;39.75;99179.28;5015102;28;20057;-84
2021/03/25 10:41:54;;;;;;;0.20;0.20;;;;;;;8.93;39.87;99144.78;5014958;28;20026;-82
2021/03/25 10:44:33;;;;;;;1.15;1.15;;;;;;;9.23;41.05;99145.94;5015215;28;20057;-84
2021/03/25 10:47:08;;;;;;;2.20;2.10;;;;;;;9.45;36.77;99138.13;5020003;28;20543;-82
2021/03/25 10:49:47;;;;;;;2.75;1.88;;;;;;;9.04;36.79;99114.31;5014500;28;20037;-82
2021/03/25 10:52:40;;;;;;;0.22;0.22;;;;;;;8.93;37.67;99103.44;5014190;28;20032;-83
2021/03/25 10:55:17;;;;;;;0.38;0.38;;;;;;;9.30;37.24;99154.88;5014269;28;20088;-82
2021/03/25 10:57:48;;;;;;;3.75;1.90;;;;;;;9.12;36.83;99109.47;5030736;28;20054;-83
2021/03/25 11:00:19;;;;;;;0.52;0.52;;;;;;;8.83;36.81;99151.22;5014268;28;20485;-83
2021/03/25 11:02:45;;;;;;;4.40;4.00;;;;;;;7.81;37.06;99111.84;5013997;28;20077;-84
2021/03/25 11:05:20;;;;;;;3.00;1.10;;;;;;;7.49;37.59;99156.09;5014438;28;20048;-87
2021/03/25 11:07:58;;;;;;;0.85;0.85;;;;;;;7.43;39.07;99151.44;5014652;28;20030;-88
2021/03/25 11:10:31;;;;;;;0.70;0.70;;;;;;;7.81;41.13;99147.59;5014684;28;20079;-86
2021/03/25 11:13:15;;;;;;;0.32;0.32;;;;;;;8.20;39.42;99114.16;5014542;28;20045;-87
2021/03/25 11:15:47;;;;;;;0.43;0.43;;;;;;;8.37;37.85;99135.25;5014045;28;20062;-83
2021/03/25 11:18:23;;;;;;;0.40;0.40;;;;;;;9.03;37.43;99147.81;5014141;28;20060;-82
2021/03/25 11:20:50;;;;;;;3.65;3.35;;;;;;;9.27;38.78;99135.66;5013887;28;20037;-83
2021/03/25 11:23:19;;;;;;;0.77;0.77;;;;;;;9.61;38.78;99130.75;5014152;28;20026;-82
2021/03/25 11:25:45;;;;;;;2.08;1.98;;;;;;;9.63;39.19;99097.25;5013946;28;20038;-81
2021/03/25 11:28:17;;;;;;;1.05;0.63;;;;;;;9.65;36.63;99092.84;5014134;28;20030;-82
2021/03/25 11:30:42;;;;;;;0.90;0.90;;;;;;;9.74;38.11;99158.53;5014114;28;20026;-85
2021/03/25 11:33:29;;;;;;;0.32;0.32;;;;;;;9.11;38.96;99146.50;5013852;28;20033;-88
2021/03/25 11:35:58;;;;;;;0.47;0.47;;;;;;;8.30;37.16;99151.84;5014008;28;20030;-86
2021/03/25 11:38:27;;;;;;;1.73;1.65;;;;;;;8.14;39.17;99159.84;5013322;28;20033;-86
2021/03/25 11:40:54;;;;;;;0.80;0.80;;;;;;;7.95;38.96;99086.94;5013927;28;20057;-85
2021/03/25 11:43:24;;;;;;;1.13;1.13;;;;;;;8.46;38.11;99165.03;5013970;28;20080;-84
2021/03/25 11:45:58;;;;;;;0.45;0.45;;;;;;;8.60;40.40;99126.34;5013752;28;20030;-86
2021/03/25 11:48:30;;;;;;;0.57;0.57;;;;;;;8.86;35.99;99124.81;5014078;28;20026;-87
2021/03/25 11:51:15;;;;;;;0.95;0.95;;;;;;;8.92;38.40;99104.63;5013435;28;20034;-85
2021/03/25 11:53:45;;;;;;;0.30;0.30;;;;;;;9.07;37.88;99126.47;5013784;28;20084;-85
2021/03/25 11:56:31;;;;;;;0.63;0.63;;;;;;;9.09;33.71;99102.84;5013991;28;20034;-86
2021/03/25 11:59:05;;;;;;;0.35;0.35;;;;;;;9.58;36.74;99148.16;5014868;28;20041;-84
2021/03/25 12:01:33;;;;;;;0.75;0.75;;;;;;;9.30;34.25;99098.94;5013942;28;20055;-83
2021/03/25 12:04:24;;;;;;;1.80;0.85;;;;;;;8.93;38.56;99128.22;5013533;28;20030;-86
2021/03/25 12:07:05;;;;;;;0.35;0.35;;;;;;;8.56;35.29;99126.34;5013367;28;20053;-86
2021/03/25 12:09:33;;;;;;;1.08;1.08;;;;;;;8.19;36.67;99082.34;5013547;28;20084;-86
2021/03/25 12:12:00;;;;;;;0.20;0.20;;;;;;;8.46;36.26;99110.75;5013241;28;20033;-87
2021/03/25 12:14:26;;;;;;;0.20;0.20;;;;;;;8.21;36.50;99092.94;5013760;28;20457;-87